createdAt,value
2023-02-08T00:01:25.567Z,-1.39
2023-02-08T00:04:52.816Z,-1.39
2023-02-08T00:08:20.495Z,-1.38
2023-02-08T00:11:47.828Z,-1.37
2023-02-08T00:15:15.327Z,-1.36
2023-02-08T00:18:42.892Z,-1.36
2023-02-08T00:22:10.569Z,-1.36
2023-02-08T00:25:38.092Z,-1.36
2023-02-08T00:29:05.196Z,-1.38
2023-02-08T00:32:35.024Z,-1.39
2023-02-08T00:36:03.934Z,-1.43
2023-02-08T00:39:34.505Z,-1.48
2023-02-08T00:43:04.797Z,-1.50
2023-02-08T00:46:32.194Z,-1.56
2023-02-08T00:49:59.966Z,-1.59
2023-02-08T00:53:27.212Z,-1.59
2023-02-08T00:56:54.778Z,-1.58
2023-02-08T01:00:32.018Z,-1.59
2023-02-08T01:04:02.343Z,-1.63
2023-02-08T01:07:29.661Z,-1.66
2023-02-08T01:11:02.831Z,-1.68
2023-02-08T01:14:30.468Z,-1.70
2023-02-08T01:17:59.487Z,-1.70
2023-02-08T01:21:28.825Z,-1.69
2023-02-08T01:24:56.294Z,-1.71
2023-02-08T01:28:23.569Z,-1.71
2023-02-08T01:31:51.099Z,-1.73
2023-02-08T01:35:18.855Z,-1.75
2023-02-08T01:38:46.788Z,-1.79
2023-02-08T01:42:16.360Z,-1.82
2023-02-08T01:45:44.473Z,-1.82
2023-02-08T01:49:17.511Z,-1.82
2023-02-08T01:52:48.577Z,-1.83
2023-02-08T01:56:22.590Z,-1.86
2023-02-08T01:59:55.571Z,-1.85
2023-02-08T02:03:24.807Z,-1.84
2023-02-08T02:06:54.632Z,-1.83
2023-02-08T02:10:26.942Z,-1.82
2023-02-08T02:13:54.469Z,-1.81
2023-02-08T02:17:22.699Z,-1.81
2023-02-08T02:21:06.000Z,-1.81
2023-02-08T02:25:05.242Z,-1.82
2023-02-08T02:28:40.678Z,-1.83
2023-02-08T02:32:27.658Z,-1.86
2023-02-08T02:36:02.152Z,-1.88
2023-02-08T02:39:39.202Z,-1.89
2023-02-08T02:43:35.408Z,-1.94
2023-02-08T02:47:11.874Z,-2.02
2023-02-08T02:50:42.968Z,-2.08
2023-02-08T02:54:19.458Z,-2.11
2023-02-08T02:57:49.453Z,-2.12
2023-02-08T03:01:26.029Z,-2.12
2023-02-08T03:04:58.294Z,-2.13
2023-02-08T03:08:43.708Z,-2.12
2023-02-08T03:12:23.806Z,-2.10
2023-02-08T03:16:02.311Z,-2.12
2023-02-08T03:19:37.550Z,-2.13
2023-02-08T03:23:16.245Z,-2.12
2023-02-08T03:26:54.067Z,-2.12
2023-02-08T03:30:29.182Z,-2.12
2023-02-08T03:34:02.085Z,-2.13
2023-02-08T03:37:32.990Z,-2.13
2023-02-08T03:41:04.291Z,-2.10
2023-02-08T03:44:39.208Z,-2.11
2023-02-08T03:48:09.741Z,-2.11
2023-02-08T03:51:40.727Z,-2.10
2023-02-08T03:55:12.935Z,-2.10
2023-02-08T03:58:46.389Z,-2.08
2023-02-08T04:02:22.248Z,-2.05
2023-02-08T04:05:50.794Z,-2.01
2023-02-08T04:09:18.141Z,-1.99
2023-02-08T04:12:46.746Z,-1.97
2023-02-08T04:16:14.425Z,-1.95
2023-02-08T04:19:42.259Z,-1.92
2023-02-08T04:23:09.679Z,-1.91
2023-02-08T04:26:36.996Z,-1.93
2023-02-08T04:30:04.993Z,-1.94
2023-02-08T04:33:32.275Z,-1.97
2023-02-08T04:36:59.475Z,-1.98
2023-02-08T04:40:26.876Z,-1.98
2023-02-08T04:43:54.076Z,-2.00
2023-02-08T04:47:21.493Z,-2.00
2023-02-08T04:50:49.378Z,-2.00
2023-02-08T04:54:16.647Z,-2.00
2023-02-08T04:57:43.877Z,-2.00
2023-02-08T05:01:12.073Z,-2.01
2023-02-08T05:04:39.360Z,-2.02
2023-02-08T05:08:08.349Z,-2.01
2023-02-08T05:11:35.584Z,-2.02
2023-02-08T05:15:02.788Z,-2.03
2023-02-08T05:18:30.039Z,-2.02
2023-02-08T05:21:57.265Z,-2.01
2023-02-08T05:25:24.416Z,-2.01
2023-02-08T05:28:51.772Z,-2.01
2023-02-08T05:32:19.233Z,-2.02
2023-02-08T05:35:47.106Z,-2.03
2023-02-08T05:39:14.207Z,-2.03
2023-02-08T05:42:42.541Z,-2.03
2023-02-08T05:46:10.267Z,-2.04
2023-02-08T05:49:37.561Z,-2.05
2023-02-08T05:53:04.762Z,-2.05
2023-02-08T05:56:32.562Z,-2.03
2023-02-08T05:59:59.755Z,-2.00
2023-02-08T06:03:27.067Z,-1.98
2023-02-08T06:06:54.355Z,-1.97
2023-02-08T06:10:21.884Z,-1.96
2023-02-08T06:13:49.536Z,-1.95
2023-02-08T06:17:17.030Z,-1.95
2023-02-08T06:20:44.225Z,-1.95
2023-02-08T06:24:12.110Z,-1.94
2023-02-08T06:27:39.283Z,-1.91
2023-02-08T06:31:07.153Z,-1.91
2023-02-08T06:34:34.608Z,-1.90
2023-02-08T06:38:01.970Z,-1.88
2023-02-08T06:41:29.251Z,-1.85
2023-02-08T06:44:59.486Z,-1.80
2023-02-08T06:48:27.193Z,-1.76
2023-02-08T06:52:02.104Z,-1.71
2023-02-08T06:55:29.417Z,-1.67
2023-02-08T06:58:57.437Z,-1.62
2023-02-08T07:02:28.004Z,-1.60
2023-02-08T07:06:04.452Z,-1.55
2023-02-08T07:09:33.870Z,-1.51
2023-02-08T07:13:02.769Z,-1.45
2023-02-08T07:16:30.291Z,-1.37
2023-02-08T07:19:57.485Z,-1.32
2023-02-08T07:23:24.987Z,-1.25
2023-02-08T07:26:52.260Z,-1.17
2023-02-08T07:30:20.014Z,-1.12
2023-02-08T07:33:47.615Z,-1.07
2023-02-08T07:37:15.164Z,-1.03
2023-02-08T07:40:42.937Z,-0.98
2023-02-08T07:44:10.488Z,-0.90
2023-02-08T07:47:37.688Z,-0.85
2023-02-08T07:51:05.446Z,-0.80
2023-02-08T07:54:32.884Z,-0.72
2023-02-08T07:58:03.324Z,-0.63
2023-02-08T08:01:30.844Z,-0.53
2023-02-08T08:04:58.344Z,-0.41
2023-02-08T08:08:25.560Z,-0.19
2023-02-08T08:11:52.701Z,0.04
2023-02-08T08:15:20.138Z,0.15
2023-02-08T08:18:47.294Z,0.20
2023-02-08T08:22:17.605Z,0.19
2023-02-08T08:25:44.830Z,0.17
2023-02-08T08:29:12.021Z,0.17
2023-02-08T08:32:41.843Z,0.23
2023-02-08T08:36:10.425Z,0.30
2023-02-08T08:39:38.055Z,0.35
2023-02-08T08:43:05.264Z,0.41
2023-02-08T08:46:32.526Z,0.46
2023-02-08T08:49:59.897Z,0.52
2023-02-08T08:53:27.407Z,0.59
2023-02-08T08:56:54.702Z,0.69
2023-02-08T09:00:25.377Z,0.77
2023-02-08T09:03:52.879Z,0.83
2023-02-08T09:07:20.743Z,0.88
2023-02-08T09:10:50.559Z,0.96
2023-02-08T09:14:17.823Z,1.05
2023-02-08T09:17:45.736Z,1.14
2023-02-08T09:21:24.721Z,1.26
2023-02-08T09:24:53.547Z,1.36
2023-02-08T09:28:20.783Z,1.48
2023-02-08T09:31:47.970Z,1.59
2023-02-08T09:35:25.265Z,1.71
2023-02-08T09:38:57.936Z,1.80
2023-02-08T09:42:35.932Z,1.88
2023-02-08T09:46:09.464Z,1.90
2023-02-08T09:50:03.676Z,1.95
2023-02-08T09:53:36.220Z,1.96
2023-02-08T09:57:07.459Z,2.03
2023-02-08T10:00:42.354Z,2.13
2023-02-08T10:04:17.291Z,2.23
2023-02-08T10:07:47.908Z,2.33
2023-02-08T10:11:36.489Z,2.41
2023-02-08T10:15:17.106Z,2.50
2023-02-08T10:18:51.012Z,2.63
2023-02-08T10:22:29.789Z,2.74
2023-02-08T10:26:14.525Z,2.88
2023-02-08T10:29:56.579Z,2.92
2023-02-08T10:33:31.445Z,2.98
2023-02-08T10:37:01.131Z,3.05
2023-02-08T10:40:30.643Z,3.11
2023-02-08T10:44:14.763Z,3.15
2023-02-08T10:47:56.266Z,3.14
2023-02-08T10:51:24.142Z,3.18
2023-02-08T10:54:55.416Z,3.27
2023-02-08T10:58:26.374Z,3.36
2023-02-08T11:01:54.396Z,3.40
2023-02-08T11:05:32.297Z,3.44
2023-02-08T11:08:59.718Z,3.49
2023-02-08T11:12:26.867Z,3.52
2023-02-08T11:15:57.364Z,3.55
2023-02-08T11:19:35.528Z,3.49
2023-02-08T11:23:03.784Z,3.46
2023-02-08T11:26:38.532Z,3.54
2023-02-08T11:30:25.238Z,3.59
2023-02-08T11:34:06.716Z,3.60
2023-02-08T11:37:34.268Z,3.65
2023-02-08T11:41:03.715Z,3.68
2023-02-08T11:44:47.301Z,3.61
2023-02-08T11:48:37.494Z,3.67
2023-02-08T11:52:06.075Z,3.63
2023-02-08T11:55:35.463Z,3.63
2023-02-08T11:59:06.811Z,3.62
2023-02-08T12:02:39.212Z,3.61
2023-02-08T12:06:27.037Z,3.64
2023-02-08T12:10:28.371Z,3.70
2023-02-08T12:14:26.531Z,3.75
2023-02-08T12:18:15.358Z,3.82
2023-02-08T12:21:46.545Z,3.89
2023-02-08T12:25:30.159Z,3.88
2023-02-08T12:29:15.127Z,3.86
2023-02-08T12:32:57.791Z,3.83
2023-02-08T12:36:36.306Z,3.83
2023-02-08T12:40:37.797Z,3.80
2023-02-08T12:44:14.934Z,3.75
2023-02-08T12:48:03.764Z,3.79
2023-02-08T12:51:47.776Z,3.84
2023-02-08T12:55:22.663Z,3.88
2023-02-08T12:58:58.992Z,3.90
2023-02-08T13:02:34.276Z,3.94
2023-02-08T13:06:05.469Z,3.99
2023-02-08T13:09:41.547Z,3.97
2023-02-08T13:13:17.529Z,3.96
2023-02-08T13:16:47.668Z,3.99
2023-02-08T13:20:28.889Z,4.01
2023-02-08T13:23:58.007Z,3.98
2023-02-08T13:27:25.904Z,3.94
2023-02-08T13:31:00.922Z,3.86
2023-02-08T13:34:36.562Z,3.78
2023-02-08T13:38:07.425Z,3.70
2023-02-08T13:41:36.458Z,3.57
2023-02-08T13:45:06.524Z,3.48
2023-02-08T13:48:45.302Z,3.40
2023-02-08T13:52:13.300Z,3.34
2023-02-08T13:55:57.285Z,3.26
2023-02-08T13:59:37.219Z,3.11
2023-02-08T14:03:21.825Z,2.96
2023-02-08T14:06:55.661Z,2.87
2023-02-08T14:10:37.472Z,2.78
2023-02-08T14:14:14.790Z,2.74
2023-02-08T14:17:45.776Z,2.72
2023-02-08T14:21:32.195Z,2.58
2023-02-08T14:25:09.750Z,2.46
2023-02-08T14:28:45.047Z,2.31
2023-02-08T14:32:23.439Z,2.22
2023-02-08T14:35:58.296Z,2.10
2023-02-08T14:39:30.370Z,1.97
2023-02-08T14:43:01.207Z,1.82
2023-02-08T14:46:47.470Z,1.66
2023-02-08T14:50:20.299Z,1.50
2023-02-08T14:53:53.700Z,1.32
2023-02-08T14:57:28.126Z,1.19
2023-02-08T15:00:58.230Z,1.10
2023-02-08T15:04:25.971Z,1.01
2023-02-08T15:07:59.017Z,0.93
2023-02-08T15:11:28.821Z,0.87
2023-02-08T15:14:59.042Z,0.80
2023-02-08T15:18:33.285Z,0.69
2023-02-08T15:22:19.979Z,0.61
2023-02-08T15:25:55.604Z,0.52
2023-02-08T15:29:39.056Z,0.45
2023-02-08T15:33:18.023Z,0.38
2023-02-08T15:36:52.763Z,0.30
2023-02-08T15:40:25.780Z,0.22
2023-02-08T15:44:18.995Z,0.12
2023-02-08T15:47:46.485Z,0.03
2023-02-08T15:51:16.246Z,-0.05
2023-02-08T15:54:48.178Z,-0.12
2023-02-08T15:58:28.739Z,-0.17
2023-02-08T16:01:57.312Z,-0.24
2023-02-08T16:05:27.553Z,-0.34
2023-02-08T16:08:57.939Z,-0.45
2023-02-08T16:12:27.524Z,-0.57
2023-02-08T16:16:03.774Z,-0.70
2023-02-08T16:19:35.944Z,-0.83
2023-02-08T16:23:05.149Z,-0.94
2023-02-08T16:26:36.898Z,-1.05
2023-02-08T16:30:04.262Z,-1.15
2023-02-08T16:33:32.971Z,-1.26
2023-02-08T16:37:01.100Z,-1.35
2023-02-08T16:40:51.574Z,-1.43
2023-02-08T16:44:28.037Z,-1.50
2023-02-08T16:48:36.076Z,-1.52
2023-02-08T16:52:03.415Z,-1.50
2023-02-08T16:55:34.791Z,-1.45
2023-02-08T16:59:02.214Z,-1.37
2023-02-08T17:02:29.454Z,-1.31
2023-02-08T17:05:57.351Z,-1.24
2023-02-08T17:09:24.510Z,-1.15
2023-02-08T17:12:52.980Z,-1.09
2023-02-08T17:16:24.754Z,-1.04
2023-02-08T17:20:03.443Z,-1.01
2023-02-08T17:23:38.253Z,-0.98
2023-02-08T17:27:05.630Z,-0.98
2023-02-08T17:30:36.217Z,-1.01
2023-02-08T17:34:05.323Z,-1.06
2023-02-08T17:37:32.641Z,-1.13
2023-02-08T17:41:05.872Z,-1.22
2023-02-08T17:44:34.148Z,-1.31
2023-02-08T17:48:13.618Z,-1.40
2023-02-08T17:51:41.921Z,-1.49
2023-02-08T17:55:12.715Z,-1.59
2023-02-08T17:58:40.495Z,-1.69
2023-02-08T18:02:08.849Z,-1.77
2023-02-08T18:05:38.974Z,-1.85
2023-02-08T18:09:06.390Z,-1.94
2023-02-08T18:12:35.371Z,-2.01
2023-02-08T18:16:10.065Z,-2.07
2023-02-08T18:19:38.353Z,-2.13
2023-02-08T18:23:05.741Z,-2.18
2023-02-08T18:26:36.789Z,-2.22
2023-02-08T18:30:04.140Z,-2.26
2023-02-08T18:33:31.719Z,-2.29
2023-02-08T18:37:02.332Z,-2.33
2023-02-08T18:40:31.357Z,-2.37
2023-02-08T18:44:00.660Z,-2.40
2023-02-08T18:47:27.954Z,-2.42
2023-02-08T18:50:59.174Z,-2.44
2023-02-08T18:54:26.640Z,-2.48
2023-02-08T18:57:53.894Z,-2.51
2023-02-08T19:01:23.333Z,-2.56
2023-02-08T19:04:49.328Z,-2.59
2023-02-08T19:08:18.178Z,-2.63
2023-02-08T19:11:47.261Z,-2.67
2023-02-08T19:15:14.485Z,-2.70
2023-02-08T19:18:41.809Z,-2.75
2023-02-08T19:22:09.080Z,-2.80
2023-02-08T19:25:39.904Z,-2.85
2023-02-08T19:29:09.266Z,-2.91
2023-02-08T19:32:36.513Z,-2.96
2023-02-08T19:36:09.535Z,-3.01
2023-02-08T19:39:36.950Z,-3.05
2023-02-08T19:43:04.321Z,-3.11
2023-02-08T19:46:33.073Z,-3.15
2023-02-08T19:50:00.531Z,-3.19
2023-02-08T19:53:28.449Z,-3.22
2023-02-08T19:56:56.071Z,-3.25
2023-02-08T20:00:25.811Z,-3.29
2023-02-08T20:03:54.475Z,-3.32
2023-02-08T20:07:21.685Z,-3.35
2023-02-08T20:10:50.741Z,-3.37
2023-02-08T20:14:16.831Z,-3.40
2023-02-08T20:17:44.805Z,-3.44
2023-02-08T20:21:12.685Z,-3.49
2023-02-08T20:24:40.053Z,-3.53
2023-02-08T20:28:07.976Z,-3.58
2023-02-08T20:31:37.307Z,-3.62
2023-02-08T20:35:04.787Z,-3.64
2023-02-08T20:38:32.243Z,-3.68
2023-02-08T20:41:59.420Z,-3.70
2023-02-08T20:45:27.480Z,-3.73
2023-02-08T20:48:56.506Z,-3.76
2023-02-08T20:52:23.575Z,-3.78
2023-02-08T20:55:50.850Z,-3.83
2023-02-08T20:59:18.280Z,-3.88
2023-02-08T21:02:45.761Z,-3.92
2023-02-08T21:06:18.435Z,-3.94
2023-02-08T21:09:46.110Z,-3.96
2023-02-08T21:13:13.435Z,-3.96
2023-02-08T21:16:41.234Z,-3.97
2023-02-08T21:20:10.148Z,-3.97
2023-02-08T21:23:38.643Z,-3.97
2023-02-08T21:27:06.770Z,-3.98
2023-02-08T21:30:34.008Z,-3.99
2023-02-08T21:34:03.102Z,-4.00
2023-02-08T21:37:30.299Z,-4.01
2023-02-08T21:40:57.614Z,-4.03
2023-02-08T21:44:24.825Z,-4.02
2023-02-08T21:47:52.281Z,-4.04
2023-02-08T21:51:37.443Z,-4.05
2023-02-08T21:55:04.807Z,-4.05
2023-02-08T21:58:32.246Z,-4.06
2023-02-08T22:01:59.588Z,-4.08
2023-02-08T22:05:26.896Z,-4.10
2023-02-08T22:08:54.449Z,-4.13
2023-02-08T22:12:23.537Z,-4.14
2023-02-08T22:15:50.972Z,-4.14
2023-02-08T22:19:18.880Z,-4.17
2023-02-08T22:22:46.547Z,-4.18
2023-02-08T22:26:16.585Z,-4.22
2023-02-08T22:29:43.936Z,-4.27
2023-02-08T22:33:13.925Z,-4.32
2023-02-08T22:36:50.451Z,-4.35
2023-02-08T22:40:17.753Z,-4.37
2023-02-08T22:43:45.470Z,-4.39
2023-02-08T22:47:14.298Z,-4.41
2023-02-08T22:50:41.661Z,-4.42
2023-02-08T22:54:09.194Z,-4.47
2023-02-08T22:57:39.412Z,-4.51
2023-02-08T23:01:12.969Z,-4.54
2023-02-08T23:04:42.648Z,-4.56
2023-02-08T23:08:14.162Z,-4.58
2023-02-08T23:11:41.464Z,-4.59
2023-02-08T23:15:11.220Z,-4.58
2023-02-08T23:18:39.454Z,-4.59
2023-02-08T23:22:06.929Z,-4.59
2023-02-08T23:25:34.284Z,-4.58
2023-02-08T23:29:01.611Z,-4.57
2023-02-08T23:32:29.003Z,-4.56
2023-02-08T23:35:58.835Z,-4.56
2023-02-08T23:39:28.739Z,-4.58
2023-02-08T23:42:56.202Z,-4.60
2023-02-08T23:46:24.940Z,-4.63
2023-02-08T23:49:55.934Z,-4.66
2023-02-08T23:53:23.322Z,-4.70
2023-02-08T23:56:52.142Z,-4.74
